sensor_id;sensor_type;location;lat;lon;timestamp;P1;durP1;ratioP1;P2;durP2;ratioP2
61638;SDS011;47544;52.484;4.658;2022-10-23T00:00:09;23.40;;;14.85;;
61638;SDS011;47544;52.484;4.658;2022-10-23T00:00:20;24.48;;;14.68;;
61638;SDS011;47544;52.484;4.658;2022-10-23T00:00:31;26.23;;;14.98;;
61638;SDS011;47544;52.484;4.658;2022-10-23T00:00:42;25.05;;;15.10;;
61638;SDS011;47544;52.484;4.658;2022-10-23T00:00:53;24.83;;;15.33;;
61638;SDS011;47544;52.484;4.658;2022-10-23T00:01:11;25.95;;;15.07;;
61638;SDS011;47544;52.484;4.658;2022-10-23T00:01:23;29.38;;;15.57;;
61638;SDS011;47544;52.484;4.658;2022-10-23T00:01:36;29.13;;;15.93;;
61638;SDS011;47544;52.484;4.658;2022-10-23T00:01:48;27.58;;;15.68;;
61638;SDS011;47544;52.484;4.658;2022-10-23T00:01:59;24.85;;;15.60;;
61638;SDS011;47544;52.484;4.658;2022-10-23T00:02:11;26.05;;;15.40;;
61638;SDS011;47544;52.484;4.658;2022-10-23T00:02:25;26.92;;;15.13;;
61638;SDS011;47544;52.484;4.658;2022-10-23T00:02:38;27.48;;;15.57;;
61638;SDS011;47544;52.484;4.658;2022-10-23T00:02:52;27.63;;;15.77;;
61638;SDS011;47544;52.484;4.658;2022-10-23T00:03:05;25.75;;;15.50;;
61638;SDS011;47544;52.484;4.658;2022-10-23T00:03:16;27.75;;;15.75;;
61638;SDS011;47544;52.484;4.658;2022-10-23T00:03:27;28.85;;;15.57;;
61638;SDS011;47544;52.484;4.658;2022-10-23T00:03:38;28.83;;;15.35;;
61638;SDS011;47544;52.484;4.658;2022-10-23T00:03:49;26.02;;;14.93;;
61638;SDS011;47544;52.484;4.658;2022-10-23T00:04:01;25.40;;;14.80;;
61638;SDS011;47544;52.484;4.658;2022-10-23T00:04:14;26.70;;;14.77;;
61638;SDS011;47544;52.484;4.658;2022-10-23T00:04:25;25.52;;;14.45;;
61638;SDS011;47544;52.484;4.658;2022-10-23T00:04:37;24.35;;;14.32;;
61638;SDS011;47544;52.484;4.658;2022-10-23T00:04:49;23.42;;;14.73;;
61638;SDS011;47544;52.484;4.658;2022-10-23T00:05:00;24.92;;;14.95;;
61638;SDS011;47544;52.484;4.658;2022-10-23T00:05:26;24.20;;;14.55;;
61638;SDS011;47544;52.484;4.658;2022-10-23T00:05:37;26.48;;;14.95;;
61638;SDS011;47544;52.484;4.658;2022-10-23T00:05:50;27.27;;;14.98;;
61638;SDS011;47544;52.484;4.658;2022-10-23T00:06:02;26.38;;;15.10;;
61638;SDS011;47544;52.484;4.658;2022-10-23T00:06:13;28.90;;;14.98;;
61638;SDS011;47544;52.484;4.658;2022-10-23T00:06:27;26.90;;;15.27;;
61638;SDS011;47544;52.484;4.658;2022-10-23T00:06:38;25.25;;;15.20;;
61638;SDS011;47544;52.484;4.658;2022-10-23T00:06:49;26.95;;;15.48;;
61638;SDS011;47544;52.484;4.658;2022-10-23T00:07:01;28.67;;;15.95;;
61638;SDS011;47544;52.484;4.658;2022-10-23T00:07:15;30.15;;;16.02;;
61638;SDS011;47544;52.484;4.658;2022-10-23T00:07:26;29.48;;;15.63;;
61638;SDS011;47544;52.484;4.658;2022-10-23T00:07:37;27.90;;;15.50;;
61638;SDS011;47544;52.484;4.658;2022-10-23T00:07:48;28.07;;;15.93;;
61638;SDS011;47544;52.484;4.658;2022-10-23T00:07:59;27.58;;;15.82;;
61638;SDS011;47544;52.484;4.658;2022-10-23T00:08:10;28.77;;;15.98;;
61638;SDS011;47544;52.484;4.658;2022-10-23T00:08:22;29.27;;;16.08;;
61638;SDS011;47544;52.484;4.658;2022-10-23T00:08:33;27.92;;;16.05;;
61638;SDS011;47544;52.484;4.658;2022-10-23T00:08:44;28.40;;;15.77;;
61638;SDS011;47544;52.484;4.658;2022-10-23T00:08:57;28.92;;;15.57;;
61638;SDS011;47544;52.484;4.658;2022-10-23T00:09:09;27.33;;;15.43;;
61638;SDS011;47544;52.484;4.658;2022-10-23T00:09:21;26.35;;;15.25;;
61638;SDS011;47544;52.484;4.658;2022-10-23T00:09:34;24.33;;;15.00;;
61638;SDS011;47544;52.484;4.658;2022-10-23T00:09:45;23.92;;;14.45;;
61638;SDS011;47544;52.484;4.658;2022-10-23T00:09:55;22.83;;;14.32;;
61638;SDS011;47544;52.484;4.658;2022-10-23T00:10:08;23.73;;;14.77;;
61638;SDS011;47544;52.484;4.658;2022-10-23T00:10:19;23.50;;;15.02;;
61638;SDS011;47544;52.484;4.658;2022-10-23T00:10:31;25.13;;;15.10;;
61638;SDS011;47544;52.484;4.658;2022-10-23T00:10:42;23.92;;;14.93;;
61638;SDS011;47544;52.484;4.658;2022-10-23T00:10:53;24.50;;;14.65;;
61638;SDS011;47544;52.484;4.658;2022-10-23T00:11:05;23.98;;;14.75;;
61638;SDS011;47544;52.484;4.658;2022-10-23T00:11:17;24.70;;;14.80;;
61638;SDS011;47544;52.484;4.658;2022-10-23T00:11:28;27.45;;;14.80;;
61638;SDS011;47544;52.484;4.658;2022-10-23T00:11:39;28.48;;;14.75;;
61638;SDS011;47544;52.484;4.658;2022-10-23T00:11:54;29.75;;;15.15;;
61638;SDS011;47544;52.484;4.658;2022-10-23T00:12:05;28.80;;;15.17;;
61638;SDS011;47544;52.484;4.658;2022-10-23T00:12:18;27.02;;;15.18;;
61638;SDS011;47544;52.484;4.658;2022-10-23T00:12:29;30.70;;;15.60;;
61638;SDS011;47544;52.484;4.658;2022-10-23T00:12:40;29.48;;;15.65;;
61638;SDS011;47544;52.484;4.658;2022-10-23T00:12:52;29.75;;;15.75;;
61638;SDS011;47544;52.484;4.658;2022-10-23T00:13:03;27.02;;;15.45;;
61638;SDS011;47544;52.484;4.658;2022-10-23T00:13:14;28.63;;;16.00;;
61638;SDS011;47544;52.484;4.658;2022-10-23T00:13:25;28.27;;;16.25;;
61638;SDS011;47544;52.484;4.658;2022-10-23T00:13:37;26.83;;;16.38;;
61638;SDS011;47544;52.484;4.658;2022-10-23T00:13:48;25.63;;;16.05;;
61638;SDS011;47544;52.484;4.658;2022-10-23T00:14:00;26.13;;;15.65;;
61638;SDS011;47544;52.484;4.658;2022-10-23T00:14:12;25.80;;;15.70;;
61638;SDS011;47544;52.484;4.658;2022-10-23T00:14:23;27.25;;;15.77;;
61638;SDS011;47544;52.484;4.658;2022-10-23T00:14:34;27.90;;;15.88;;
61638;SDS011;47544;52.484;4.658;2022-10-23T00:14:46;31.40;;;16.02;;
61638;SDS011;47544;52.484;4.658;2022-10-23T00:14:57;30.15;;;15.98;;
61638;SDS011;47544;52.484;4.658;2022-10-23T00:15:08;26.45;;;15.55;;
61638;SDS011;47544;52.484;4.658;2022-10-23T00:15:20;24.98;;;15.60;;
61638;SDS011;47544;52.484;4.658;2022-10-23T00:15:33;26.45;;;15.82;;
61638;SDS011;47544;52.484;4.658;2022-10-23T00:15:44;25.77;;;15.93;;
61638;SDS011;47544;52.484;4.658;2022-10-23T00:15:56;24.08;;;15.15;;
61638;SDS011;47544;52.484;4.658;2022-10-23T00:16:07;24.35;;;15.15;;
61638;SDS011;47544;52.484;4.658;2022-10-23T00:16:23;24.17;;;14.95;;
61638;SDS011;47544;52.484;4.658;2022-10-23T00:16:34;22.05;;;14.95;;
61638;SDS011;47544;52.484;4.658;2022-10-23T00:16:48;22.90;;;14.90;;
61638;SDS011;47544;52.484;4.658;2022-10-23T00:16:58;24.27;;;15.13;;
61638;SDS011;47544;52.484;4.658;2022-10-23T00:17:09;23.63;;;15.13;;
61638;SDS011;47544;52.484;4.658;2022-10-23T00:17:21;23.55;;;14.95;;
61638;SDS011;47544;52.484;4.658;2022-10-23T00:17:33;23.80;;;15.00;;
61638;SDS011;47544;52.484;4.658;2022-10-23T00:17:44;25.27;;;15.07;;
61638;SDS011;47544;52.484;4.658;2022-10-23T00:17:55;25.05;;;15.25;;
61638;SDS011;47544;52.484;4.658;2022-10-23T00:18:06;25.77;;;15.63;;
61638;SDS011;47544;52.484;4.658;2022-10-23T00:18:17;26.67;;;15.50;;
61638;SDS011;47544;52.484;4.658;2022-10-23T00:18:28;26.40;;;15.38;;
61638;SDS011;47544;52.484;4.658;2022-10-23T00:18:39;24.48;;;15.13;;
61638;SDS011;47544;52.484;4.658;2022-10-23T00:18:51;24.30;;;15.15;;
61638;SDS011;47544;52.484;4.658;2022-10-23T00:19:03;25.90;;;14.95;;
61638;SDS011;47544;52.484;4.658;2022-10-23T00:19:14;25.75;;;14.52;;
61638;SDS011;47544;52.484;4.658;2022-10-23T00:19:26;25.10;;;14.27;;
61638;SDS011;47544;52.484;4.658;2022-10-23T00:19:40;22.75;;;14.13;;
61638;SDS011;47544;52.484;4.658;2022-10-23T00:19:51;22.92;;;13.88;;
61638;SDS011;47544;52.484;4.658;2022-10-23T00:20:02;24.30;;;14.30;;
61638;SDS011;47544;52.484;4.658;2022-10-23T00:20:13;25.20;;;14.68;;
61638;SDS011;47544;52.484;4.658;2022-10-23T00:20:24;25.33;;;14.85;;
61638;SDS011;47544;52.484;4.658;2022-10-23T00:20:36;23.50;;;14.20;;
61638;SDS011;47544;52.484;4.658;2022-10-23T00:20:47;22.52;;;13.90;;
61638;SDS011;47544;52.484;4.658;2022-10-23T00:21:01;24.20;;;14.30;;
61638;SDS011;47544;52.484;4.658;2022-10-23T00:21:12;26.88;;;14.50;;
61638;SDS011;47544;52.484;4.658;2022-10-23T00:21:24;26.42;;;14.60;;
61638;SDS011;47544;52.484;4.658;2022-10-23T00:21:35;26.77;;;14.85;;
61638;SDS011;47544;52.484;4.658;2022-10-23T00:21:46;23.50;;;14.85;;
61638;SDS011;47544;52.484;4.658;2022-10-23T00:21:58;23.88;;;14.45;;
61638;SDS011;47544;52.484;4.658;2022-10-23T00:22:09;24.10;;;14.43;;
61638;SDS011;47544;52.484;4.658;2022-10-23T00:22:21;24.15;;;14.32;;
61638;SDS011;47544;52.484;4.658;2022-10-23T00:22:32;24.42;;;14.55;;
61638;SDS011;47544;52.484;4.658;2022-10-23T00:22:43;24.70;;;14.48;;
61638;SDS011;47544;52.484;4.658;2022-10-23T00:22:54;25.10;;;14.40;;
61638;SDS011;47544;52.484;4.658;2022-10-23T00:23:05;23.38;;;14.23;;
61638;SDS011;47544;52.484;4.658;2022-10-23T00:23:16;22.88;;;14.00;;
61638;SDS011;47544;52.484;4.658;2022-10-23T00:23:29;23.60;;;14.05;;
61638;SDS011;47544;52.484;4.658;2022-10-23T00:23:42;23.63;;;14.48;;
61638;SDS011;47544;52.484;4.658;2022-10-23T00:23:53;22.13;;;14.43;;
61638;SDS011;47544;52.484;4.658;2022-10-23T00:24:04;19.45;;;14.00;;
61638;SDS011;47544;52.484;4.658;2022-10-23T00:24:16;21.25;;;13.77;;
61638;SDS011;47544;52.484;4.658;2022-10-23T00:24:27;23.48;;;13.90;;
61638;SDS011;47544;52.484;4.658;2022-10-23T00:24:39;22.80;;;13.88;;
61638;SDS011;47544;52.484;4.658;2022-10-23T00:24:50;20.85;;;13.82;;
61638;SDS011;47544;52.484;4.658;2022-10-23T00:25:01;20.27;;;13.95;;
61638;SDS011;47544;52.484;4.658;2022-10-23T00:25:12;22.15;;;14.13;;
61638;SDS011;47544;52.484;4.658;2022-10-23T00:25:23;21.95;;;13.82;;
61638;SDS011;47544;52.484;4.658;2022-10-23T00:25:34;21.23;;;13.65;;
61638;SDS011;47544;52.484;4.658;2022-10-23T00:25:46;20.55;;;13.73;;
61638;SDS011;47544;52.484;4.658;2022-10-23T00:25:57;22.80;;;14.32;;
61638;SDS011;47544;52.484;4.658;2022-10-23T00:26:11;24.80;;;14.55;;
61638;SDS011;47544;52.484;4.658;2022-10-23T00:26:28;22.83;;;13.88;;
61638;SDS011;47544;52.484;4.658;2022-10-23T00:26:39;22.25;;;13.68;;
61638;SDS011;47544;52.484;4.658;2022-10-23T00:26:50;21.60;;;13.52;;
61638;SDS011;47544;52.484;4.658;2022-10-23T00:27:01;23.55;;;13.90;;
61638;SDS011;47544;52.484;4.658;2022-10-23T00:27:14;25.70;;;14.05;;
61638;SDS011;47544;52.484;4.658;2022-10-23T00:27:25;25.23;;;14.20;;
61638;SDS011;47544;52.484;4.658;2022-10-23T00:27:37;24.30;;;14.20;;
61638;SDS011;47544;52.484;4.658;2022-10-23T00:27:48;22.30;;;13.95;;
61638;SDS011;47544;52.484;4.658;2022-10-23T00:27:59;23.10;;;13.93;;
61638;SDS011;47544;52.484;4.658;2022-10-23T00:28:09;22.40;;;13.82;;
61638;SDS011;47544;52.484;4.658;2022-10-23T00:28:23;21.75;;;13.77;;
61638;SDS011;47544;52.484;4.658;2022-10-23T00:28:34;21.55;;;13.70;;
61638;SDS011;47544;52.484;4.658;2022-10-23T00:28:48;22.63;;;13.73;;
61638;SDS011;47544;52.484;4.658;2022-10-23T00:29:01;22.67;;;13.88;;
61638;SDS011;47544;52.484;4.658;2022-10-23T00:29:12;22.38;;;13.88;;
61638;SDS011;47544;52.484;4.658;2022-10-23T00:29:28;23.38;;;13.77;;
61638;SDS011;47544;52.484;4.658;2022-10-23T00:29:40;22.88;;;13.68;;
61638;SDS011;47544;52.484;4.658;2022-10-23T00:29:53;20.58;;;13.23;;
61638;SDS011;47544;52.484;4.658;2022-10-23T00:30:04;20.30;;;12.83;;
61638;SDS011;47544;52.484;4.658;2022-10-23T00:30:18;19.48;;;12.75;;
61638;SDS011;47544;52.484;4.658;2022-10-23T00:30:30;19.70;;;12.75;;
61638;SDS011;47544;52.484;4.658;2022-10-23T00:30:40;19.85;;;13.02;;
61638;SDS011;47544;52.484;4.658;2022-10-23T00:30:51;22.00;;;13.45;;
61638;SDS011;47544;52.484;4.658;2022-10-23T00:31:05;22.88;;;13.70;;
61638;SDS011;47544;52.484;4.658;2022-10-23T00:31:18;23.80;;;13.63;;
61638;SDS011;47544;52.484;4.658;2022-10-23T00:31:29;24.35;;;13.60;;
61638;SDS011;47544;52.484;4.658;2022-10-23T00:31:40;22.13;;;13.43;;
61638;SDS011;47544;52.484;4.658;2022-10-23T00:31:50;22.08;;;13.20;;
61638;SDS011;47544;52.484;4.658;2022-10-23T00:32:01;21.27;;;13.00;;
61638;SDS011;47544;52.484;4.658;2022-10-23T00:32:12;21.20;;;13.07;;
61638;SDS011;47544;52.484;4.658;2022-10-23T00:32:23;21.17;;;13.05;;
61638;SDS011;47544;52.484;4.658;2022-10-23T00:32:35;20.05;;;13.13;;
61638;SDS011;47544;52.484;4.658;2022-10-23T00:32:46;19.25;;;12.80;;
61638;SDS011;47544;52.484;4.658;2022-10-23T00:32:57;19.45;;;12.70;;
61638;SDS011;47544;52.484;4.658;2022-10-23T00:33:08;18.77;;;12.43;;
61638;SDS011;47544;52.484;4.658;2022-10-23T00:33:20;21.45;;;12.95;;
61638;SDS011;47544;52.484;4.658;2022-10-23T00:33:31;19.90;;;12.73;;
61638;SDS011;47544;52.484;4.658;2022-10-23T00:33:42;20.40;;;12.27;;
61638;SDS011;47544;52.484;4.658;2022-10-23T00:33:55;19.65;;;12.35;;
61638;SDS011;47544;52.484;4.658;2022-10-23T00:34:06;22.02;;;12.90;;
61638;SDS011;47544;52.484;4.658;2022-10-23T00:34:18;21.65;;;13.07;;
61638;SDS011;47544;52.484;4.658;2022-10-23T00:34:29;21.38;;;12.80;;
61638;SDS011;47544;52.484;4.658;2022-10-23T00:34:40;21.02;;;12.43;;
61638;SDS011;47544;52.484;4.658;2022-10-23T00:34:51;20.70;;;12.33;;
61638;SDS011;47544;52.484;4.658;2022-10-23T00:35:02;19.52;;;12.52;;
61638;SDS011;47544;52.484;4.658;2022-10-23T00:35:13;19.90;;;13.02;;
61638;SDS011;47544;52.484;4.658;2022-10-23T00:35:24;20.80;;;12.98;;
61638;SDS011;47544;52.484;4.658;2022-10-23T00:35:37;20.48;;;12.80;;
61638;SDS011;47544;52.484;4.658;2022-10-23T00:35:48;18.52;;;12.73;;
61638;SDS011;47544;52.484;4.658;2022-10-23T00:36:04;18.67;;;12.60;;
61638;SDS011;47544;52.484;4.658;2022-10-23T00:36:16;18.65;;;12.57;;
61638;SDS011;47544;52.484;4.658;2022-10-23T00:36:27;19.45;;;12.50;;
61638;SDS011;47544;52.484;4.658;2022-10-23T00:36:38;19.00;;;12.63;;
61638;SDS011;47544;52.484;4.658;2022-10-23T00:36:49;19.98;;;12.70;;
61638;SDS011;47544;52.484;4.658;2022-10-23T00:37:00;19.42;;;12.50;;
61638;SDS011;47544;52.484;4.658;2022-10-23T00:37:12;18.52;;;12.05;;
61638;SDS011;47544;52.484;4.658;2022-10-23T00:37:22;18.40;;;11.80;;
61638;SDS011;47544;52.484;4.658;2022-10-23T00:37:34;19.63;;;12.25;;
61638;SDS011;47544;52.484;4.658;2022-10-23T00:37:45;20.67;;;12.65;;
61638;SDS011;47544;52.484;4.658;2022-10-23T00:37:56;19.67;;;12.70;;
61638;SDS011;47544;52.484;4.658;2022-10-23T00:38:07;19.20;;;12.40;;
61638;SDS011;47544;52.484;4.658;2022-10-23T00:38:18;18.48;;;12.30;;
61638;SDS011;47544;52.484;4.658;2022-10-23T00:38:30;20.00;;;12.40;;
61638;SDS011;47544;52.484;4.658;2022-10-23T00:38:41;20.63;;;12.60;;
61638;SDS011;47544;52.484;4.658;2022-10-23T00:38:53;21.58;;;12.90;;
61638;SDS011;47544;52.484;4.658;2022-10-23T00:39:04;20.55;;;12.75;;
61638;SDS011;47544;52.484;4.658;2022-10-23T00:39:19;19.98;;;12.48;;
61638;SDS011;47544;52.484;4.658;2022-10-23T00:39:43;21.40;;;12.55;;
61638;SDS011;47544;52.484;4.658;2022-10-23T00:40:00;20.35;;;12.73;;
61638;SDS011;47544;52.484;4.658;2022-10-23T00:40:12;19.77;;;12.43;;
61638;SDS011;47544;52.484;4.658;2022-10-23T00:40:22;21.02;;;12.50;;
61638;SDS011;47544;52.484;4.658;2022-10-23T00:40:33;20.60;;;12.55;;
61638;SDS011;47544;52.484;4.658;2022-10-23T00:40:46;20.48;;;12.50;;
61638;SDS011;47544;52.484;4.658;2022-10-23T00:40:57;20.42;;;12.88;;
61638;SDS011;47544;52.484;4.658;2022-10-23T00:41:08;19.98;;;13.27;;
61638;SDS011;47544;52.484;4.658;2022-10-23T00:41:21;19.88;;;13.35;;
61638;SDS011;47544;52.484;4.658;2022-10-23T00:41:33;20.83;;;13.07;;
61638;SDS011;47544;52.484;4.658;2022-10-23T00:41:44;20.33;;;13.00;;
61638;SDS011;47544;52.484;4.658;2022-10-23T00:41:55;19.75;;;12.60;;
61638;SDS011;47544;52.484;4.658;2022-10-23T00:42:06;18.38;;;12.50;;
61638;SDS011;47544;52.484;4.658;2022-10-23T00:42:17;19.20;;;12.48;;
61638;SDS011;47544;52.484;4.658;2022-10-23T00:42:28;21.77;;;12.90;;
61638;SDS011;47544;52.484;4.658;2022-10-23T00:42:40;23.25;;;13.00;;
61638;SDS011;47544;52.484;4.658;2022-10-23T00:42:51;21.35;;;13.07;;
61638;SDS011;47544;52.484;4.658;2022-10-23T00:43:02;21.63;;;13.03;;
61638;SDS011;47544;52.484;4.658;2022-10-23T00:43:16;19.17;;;12.85;;
61638;SDS011;47544;52.484;4.658;2022-10-23T00:43:27;19.40;;;12.90;;
61638;SDS011;47544;52.484;4.658;2022-10-23T00:43:57;20.42;;;13.68;;
61638;SDS011;47544;52.484;4.658;2022-10-23T00:45:14;18.73;;;12.98;;
61638;SDS011;47544;52.484;4.658;2022-10-23T00:45:26;23.15;;;13.52;;
61638;SDS011;47544;52.484;4.658;2022-10-23T00:45:37;23.70;;;13.50;;
61638;SDS011;47544;52.484;4.658;2022-10-23T00:45:50;22.95;;;13.40;;
61638;SDS011;47544;52.484;4.658;2022-10-23T00:46:03;22.45;;;13.40;;
61638;SDS011;47544;52.484;4.658;2022-10-23T00:46:13;20.92;;;13.27;;
61638;SDS011;47544;52.484;4.658;2022-10-23T00:46:25;21.02;;;13.50;;
61638;SDS011;47544;52.484;4.658;2022-10-23T00:46:36;21.52;;;13.60;;
61638;SDS011;47544;52.484;4.658;2022-10-23T00:46:47;23.05;;;13.52;;
61638;SDS011;47544;52.484;4.658;2022-10-23T00:47:01;23.10;;;13.52;;
61638;SDS011;47544;52.484;4.658;2022-10-23T00:47:13;22.75;;;13.50;;
61638;SDS011;47544;52.484;4.658;2022-10-23T00:47:26;21.55;;;13.45;;
61638;SDS011;47544;52.484;4.658;2022-10-23T00:47:37;21.63;;;13.57;;
61638;SDS011;47544;52.484;4.658;2022-10-23T00:47:48;20.77;;;13.52;;
61638;SDS011;47544;52.484;4.658;2022-10-23T00:48:00;19.75;;;13.85;;
61638;SDS011;47544;52.484;4.658;2022-10-23T00:48:11;21.92;;;14.23;;
61638;SDS011;47544;52.484;4.658;2022-10-23T00:48:23;22.55;;;14.38;;
61638;SDS011;47544;52.484;4.658;2022-10-23T00:48:35;23.73;;;14.40;;
61638;SDS011;47544;52.484;4.658;2022-10-23T00:48:46;23.67;;;14.50;;
61638;SDS011;47544;52.484;4.658;2022-10-23T00:48:57;23.20;;;14.70;;
61638;SDS011;47544;52.484;4.658;2022-10-23T00:49:08;23.73;;;14.55;;
61638;SDS011;47544;52.484;4.658;2022-10-23T00:49:20;23.90;;;14.18;;
61638;SDS011;47544;52.484;4.658;2022-10-23T00:49:32;22.77;;;13.95;;
61638;SDS011;47544;52.484;4.658;2022-10-23T00:49:45;21.00;;;13.95;;
61638;SDS011;47544;52.484;4.658;2022-10-23T00:49:56;22.55;;;14.10;;
61638;SDS011;47544;52.484;4.658;2022-10-23T00:50:08;22.98;;;14.00;;
61638;SDS011;47544;52.484;4.658;2022-10-23T00:50:19;22.15;;;14.43;;
61638;SDS011;47544;52.484;4.658;2022-10-23T00:50:31;21.92;;;14.32;;
61638;SDS011;47544;52.484;4.658;2022-10-23T00:50:43;21.42;;;14.50;;
61638;SDS011;47544;52.484;4.658;2022-10-23T00:50:55;21.73;;;14.73;;
61638;SDS011;47544;52.484;4.658;2022-10-23T00:51:08;21.67;;;14.27;;
61638;SDS011;47544;52.484;4.658;2022-10-23T00:51:18;22.67;;;14.20;;
61638;SDS011;47544;52.484;4.658;2022-10-23T00:51:32;23.10;;;14.38;;
61638;SDS011;47544;52.484;4.658;2022-10-23T00:51:45;22.35;;;14.18;;
61638;SDS011;47544;52.484;4.658;2022-10-23T00:51:58;23.00;;;14.35;;
61638;SDS011;47544;52.484;4.658;2022-10-23T00:52:11;23.50;;;14.07;;
61638;SDS011;47544;52.484;4.658;2022-10-23T00:52:23;20.75;;;13.70;;
61638;SDS011;47544;52.484;4.658;2022-10-23T00:52:34;21.23;;;13.57;;
61638;SDS011;47544;52.484;4.658;2022-10-23T00:52:48;23.25;;;14.00;;
61638;SDS011;47544;52.484;4.658;2022-10-23T00:53:01;23.15;;;14.38;;
61638;SDS011;47544;52.484;4.658;2022-10-23T00:53:12;23.02;;;14.57;;
61638;SDS011;47544;52.484;4.658;2022-10-23T00:53:24;23.13;;;14.30;;
61638;SDS011;47544;52.484;4.658;2022-10-23T00:53:36;23.23;;;14.35;;
61638;SDS011;47544;52.484;4.658;2022-10-23T00:53:48;22.63;;;14.57;;
61638;SDS011;47544;52.484;4.658;2022-10-23T00:54:00;23.05;;;14.70;;
61638;SDS011;47544;52.484;4.658;2022-10-23T00:54:12;22.23;;;14.68;;
61638;SDS011;47544;52.484;4.658;2022-10-23T00:54:24;21.83;;;14.80;;
61638;SDS011;47544;52.484;4.658;2022-10-23T00:54:37;22.60;;;14.50;;
61638;SDS011;47544;52.484;4.658;2022-10-23T00:54:51;23.83;;;14.38;;
61638;SDS011;47544;52.484;4.658;2022-10-23T00:55:02;23.00;;;14.63;;
61638;SDS011;47544;52.484;4.658;2022-10-23T00:55:14;22.08;;;14.73;;
61638;SDS011;47544;52.484;4.658;2022-10-23T00:55:25;23.30;;;15.18;;
61638;SDS011;47544;52.484;4.658;2022-10-23T00:55:37;24.42;;;14.77;;
61638;SDS011;47544;52.484;4.658;2022-10-23T00:55:49;24.42;;;15.00;;
61638;SDS011;47544;52.484;4.658;2022-10-23T00:56:03;22.35;;;14.95;;
61638;SDS011;47544;52.484;4.658;2022-10-23T00:56:14;23.98;;;14.77;;
61638;SDS011;47544;52.484;4.658;2022-10-23T00:56:25;25.48;;;14.85;;
61638;SDS011;47544;52.484;4.658;2022-10-23T00:56:37;24.77;;;14.75;;
61638;SDS011;47544;52.484;4.658;2022-10-23T00:56:49;23.60;;;14.90;;
61638;SDS011;47544;52.484;4.658;2022-10-23T00:57:02;23.20;;;14.90;;
61638;SDS011;47544;52.484;4.658;2022-10-23T00:57:14;24.38;;;14.75;;
61638;SDS011;47544;52.484;4.658;2022-10-23T00:57:30;24.70;;;14.82;;
61638;SDS011;47544;52.484;4.658;2022-10-23T00:57:44;24.65;;;15.00;;
61638;SDS011;47544;52.484;4.658;2022-10-23T00:57:56;25.60;;;15.07;;
61638;SDS011;47544;52.484;4.658;2022-10-23T00:58:07;27.02;;;15.13;;
61638;SDS011;47544;52.484;4.658;2022-10-23T00:58:20;27.58;;;15.48;;
61638;SDS011;47544;52.484;4.658;2022-10-23T00:58:31;28.35;;;15.50;;
61638;SDS011;47544;52.484;4.658;2022-10-23T00:58:42;25.88;;;15.55;;
61638;SDS011;47544;52.484;4.658;2022-10-23T00:58:53;24.85;;;15.52;;
61638;SDS011;47544;52.484;4.658;2022-10-23T00:59:05;24.17;;;15.35;;
61638;SDS011;47544;52.484;4.658;2022-10-23T00:59:16;26.45;;;15.07;;
61638;SDS011;47544;52.484;4.658;2022-10-23T00:59:27;26.83;;;14.75;;
61638;SDS011;47544;52.484;4.658;2022-10-23T00:59:41;26.60;;;14.85;;
61638;SDS011;47544;52.484;4.658;2022-10-23T00:59:52;24.33;;;14.63;;
61638;SDS011;47544;52.484;4.658;2022-10-23T01:00:03;23.63;;;14.68;;
61638;SDS011;47544;52.484;4.658;2022-10-23T01:00:15;22.35;;;14.45;;
61638;SDS011;47544;52.484;4.658;2022-10-23T01:00:29;23.00;;;14.52;;
61638;SDS011;47544;52.484;4.658;2022-10-23T01:00:41;23.05;;;14.43;;
61638;SDS011;47544;52.484;4.658;2022-10-23T01:00:53;23.13;;;14.57;;
61638;SDS011;47544;52.484;4.658;2022-10-23T01:01:13;24.27;;;14.65;;
61638;SDS011;47544;52.484;4.658;2022-10-23T01:01:25;23.60;;;14.70;;
61638;SDS011;47544;52.484;4.658;2022-10-23T01:01:36;23.50;;;14.68;;
61638;SDS011;47544;52.484;4.658;2022-10-23T01:01:47;24.90;;;14.60;;
61638;SDS011;47544;52.484;4.658;2022-10-23T01:01:58;24.33;;;14.60;;
61638;SDS011;47544;52.484;4.658;2022-10-23T01:02:10;22.67;;;14.50;;
61638;SDS011;47544;52.484;4.658;2022-10-23T01:02:24;23.38;;;14.50;;
61638;SDS011;47544;52.484;4.658;2022-10-23T01:02:35;25.48;;;14.63;;
61638;SDS011;47544;52.484;4.658;2022-10-23T01:02:46;25.67;;;14.63;;
61638;SDS011;47544;52.484;4.658;2022-10-23T01:02:56;23.90;;;14.88;;
61638;SDS011;47544;52.484;4.658;2022-10-23T01:03:07;22.83;;;15.05;;
61638;SDS011;47544;52.484;4.658;2022-10-23T01:03:19;23.15;;;15.27;;
61638;SDS011;47544;52.484;4.658;2022-10-23T01:03:31;22.85;;;14.90;;
61638;SDS011;47544;52.484;4.658;2022-10-23T01:03:43;23.42;;;14.63;;
61638;SDS011;47544;52.484;4.658;2022-10-23T01:03:54;23.42;;;14.40;;
61638;SDS011;47544;52.484;4.658;2022-10-23T01:04:06;22.42;;;14.27;;
61638;SDS011;47544;52.484;4.658;2022-10-23T01:04:18;22.48;;;14.18;;
61638;SDS011;47544;52.484;4.658;2022-10-23T01:04:30;23.60;;;14.63;;
61638;SDS011;47544;52.484;4.658;2022-10-23T01:04:43;23.27;;;14.70;;
61638;SDS011;47544;52.484;4.658;2022-10-23T01:04:58;24.58;;;14.60;;
61638;SDS011;47544;52.484;4.658;2022-10-23T01:05:10;24.38;;;14.32;;
61638;SDS011;47544;52.484;4.658;2022-10-23T01:05:24;21.55;;;13.90;;
61638;SDS011;47544;52.484;4.658;2022-10-23T01:05:39;21.55;;;14.13;;
61638;SDS011;47544;52.484;4.658;2022-10-23T01:05:52;21.90;;;14.15;;
61638;SDS011;47544;52.484;4.658;2022-10-23T01:06:04;19.38;;;13.63;;
61638;SDS011;47544;52.484;4.658;2022-10-23T01:06:21;18.95;;;13.65;;
61638;SDS011;47544;52.484;4.658;2022-10-23T01:06:34;21.30;;;13.60;;
61638;SDS011;47544;52.484;4.658;2022-10-23T01:06:49;21.67;;;13.52;;
61638;SDS011;47544;52.484;4.658;2022-10-23T01:07:04;20.77;;;13.80;;
61638;SDS011;47544;52.484;4.658;2022-10-23T01:07:19;20.48;;;14.07;;
61638;SDS011;47544;52.484;4.658;2022-10-23T01:07:33;21.35;;;13.98;;
61638;SDS011;47544;52.484;4.658;2022-10-23T01:07:48;22.20;;;13.20;;
61638;SDS011;47544;52.484;4.658;2022-10-23T01:08:01;23.02;;;13.40;;
61638;SDS011;47544;52.484;4.658;2022-10-23T01:08:17;22.23;;;13.90;;
61638;SDS011;47544;52.484;4.658;2022-10-23T01:08:33;21.25;;;13.95;;
61638;SDS011;47544;52.484;4.658;2022-10-23T01:08:47;21.67;;;14.00;;
61638;SDS011;47544;52.484;4.658;2022-10-23T01:09:02;21.05;;;13.85;;
61638;SDS011;47544;52.484;4.658;2022-10-23T01:09:15;21.95;;;13.80;;
61638;SDS011;47544;52.484;4.658;2022-10-23T01:09:28;22.10;;;13.77;;
61638;SDS011;47544;52.484;4.658;2022-10-23T01:09:42;20.70;;;13.75;;
61638;SDS011;47544;52.484;4.658;2022-10-23T01:09:57;20.67;;;13.77;;
61638;SDS011;47544;52.484;4.658;2022-10-23T01:10:14;21.77;;;13.82;;
61638;SDS011;47544;52.484;4.658;2022-10-23T01:10:29;21.88;;;13.75;;
61638;SDS011;47544;52.484;4.658;2022-10-23T01:10:43;22.40;;;13.75;;
61638;SDS011;47544;52.484;4.658;2022-10-23T01:10:56;23.00;;;13.88;;
61638;SDS011;47544;52.484;4.658;2022-10-23T01:11:09;23.05;;;14.07;;
61638;SDS011;47544;52.484;4.658;2022-10-23T01:11:23;22.25;;;13.85;;
61638;SDS011;47544;52.484;4.658;2022-10-23T01:11:38;21.10;;;13.80;;
61638;SDS011;47544;52.484;4.658;2022-10-23T01:11:51;21.70;;;14.02;;
61638;SDS011;47544;52.484;4.658;2022-10-23T01:12:04;21.98;;;14.15;;
61638;SDS011;47544;52.484;4.658;2022-10-23T01:12:18;22.67;;;14.40;;